sensor_id;sensor_type;location;lat;lon;timestamp;P1;durP1;ratioP1;P2;durP2;ratioP2
20535;SDS011;10426;49.420;8.390;2023-06-10T00:02:09;6.07;;;4.90;;
20535;SDS011;10426;49.420;8.390;2023-06-10T00:04:35;5.18;;;4.68;;
20535;SDS011;10426;49.420;8.390;2023-06-10T00:07:02;4.95;;;4.55;;
20535;SDS011;10426;49.420;8.390;2023-06-10T00:09:30;5.68;;;5.18;;
20535;SDS011;10426;49.420;8.390;2023-06-10T00:11:57;5.88;;;4.70;;
20535;SDS011;10426;49.420;8.390;2023-06-10T00:14:26;5.40;;;5.00;;
20535;SDS011;10426;49.420;8.390;2023-06-10T00:16:52;5.03;;;4.70;;
20535;SDS011;10426;49.420;8.390;2023-06-10T00:19:20;5.53;;;4.93;;
20535;SDS011;10426;49.420;8.390;2023-06-10T00:21:51;5.50;;;5.10;;
20535;SDS011;10426;49.420;8.390;2023-06-10T00:24:18;5.55;;;5.05;;
20535;SDS011;10426;49.420;8.390;2023-06-10T00:26:46;6.33;;;5.10;;
20535;SDS011;10426;49.420;8.390;2023-06-10T00:29:12;5.78;;;5.18;;
20535;SDS011;10426;49.420;8.390;2023-06-10T00:31:39;6.35;;;5.40;;
20535;SDS011;10426;49.420;8.390;2023-06-10T00:34:06;6.33;;;5.73;;
20535;SDS011;10426;49.420;8.390;2023-06-10T00:36:33;6.13;;;5.50;;
20535;SDS011;10426;49.420;8.390;2023-06-10T00:39:01;6.40;;;5.80;;
20535;SDS011;10426;49.420;8.390;2023-06-10T00:41:28;6.30;;;5.80;;
20535;SDS011;10426;49.420;8.390;2023-06-10T00:43:56;6.28;;;5.78;;
20535;SDS011;10426;49.420;8.390;2023-06-10T00:46:23;6.22;;;5.72;;
20535;SDS011;10426;49.420;8.390;2023-06-10T00:48:50;6.40;;;5.80;;
20535;SDS011;10426;49.420;8.390;2023-06-10T00:51:17;6.53;;;5.78;;
20535;SDS011;10426;49.420;8.390;2023-06-10T00:53:44;6.93;;;6.10;;
20535;SDS011;10426;49.420;8.390;2023-06-10T00:56:11;6.70;;;6.03;;
20535;SDS011;10426;49.420;8.390;2023-06-10T00:58:39;6.65;;;6.10;;
20535;SDS011;10426;49.420;8.390;2023-06-10T01:01:07;6.93;;;6.32;;
20535;SDS011;10426;49.420;8.390;2023-06-10T01:03:36;6.80;;;6.13;;
20535;SDS011;10426;49.420;8.390;2023-06-10T01:06:06;6.83;;;6.23;;
20535;SDS011;10426;49.420;8.390;2023-06-10T01:08:34;6.55;;;5.95;;
20535;SDS011;10426;49.420;8.390;2023-06-10T01:11:03;6.80;;;6.20;;
20535;SDS011;10426;49.420;8.390;2023-06-10T01:13:32;6.72;;;6.13;;
20535;SDS011;10426;49.420;8.390;2023-06-10T01:16:00;6.97;;;6.30;;
20535;SDS011;10426;49.420;8.390;2023-06-10T01:18:30;7.10;;;6.40;;
20535;SDS011;10426;49.420;8.390;2023-06-10T01:20:57;7.20;;;6.50;;
20535;SDS011;10426;49.420;8.390;2023-06-10T01:23:25;7.20;;;6.50;;
20535;SDS011;10426;49.420;8.390;2023-06-10T01:25:53;6.82;;;6.25;;
20535;SDS011;10426;49.420;8.390;2023-06-10T01:28:25;6.70;;;6.20;;
20535;SDS011;10426;49.420;8.390;2023-06-10T01:30:55;7.47;;;6.87;;
20535;SDS011;10426;49.420;8.390;2023-06-10T01:33:27;7.43;;;6.73;;
20535;SDS011;10426;49.420;8.390;2023-06-10T01:35:54;7.20;;;6.60;;
20535;SDS011;10426;49.420;8.390;2023-06-10T01:38:22;7.22;;;6.63;;
20535;SDS011;10426;49.420;8.390;2023-06-10T01:40:51;7.35;;;6.72;;
20535;SDS011;10426;49.420;8.390;2023-06-10T01:43:19;6.65;;;6.05;;
20535;SDS011;10426;49.420;8.390;2023-06-10T01:45:46;7.45;;;6.85;;
20535;SDS011;10426;49.420;8.390;2023-06-10T01:48:12;8.23;;;6.57;;
20535;SDS011;10426;49.420;8.390;2023-06-10T01:50:39;8.90;;;6.68;;
20535;SDS011;10426;49.420;8.390;2023-06-10T01:53:06;7.13;;;6.57;;
20535;SDS011;10426;49.420;8.390;2023-06-10T01:55:32;7.00;;;6.50;;
20535;SDS011;10426;49.420;8.390;2023-06-10T01:58:00;7.10;;;6.55;;
20535;SDS011;10426;49.420;8.390;2023-06-10T02:00:27;7.72;;;7.03;;
20535;SDS011;10426;49.420;8.390;2023-06-10T02:02:53;7.68;;;6.95;;
20535;SDS011;10426;49.420;8.390;2023-06-10T02:05:20;7.53;;;6.80;;
20535;SDS011;10426;49.420;8.390;2023-06-10T02:07:47;7.20;;;6.57;;
20535;SDS011;10426;49.420;8.390;2023-06-10T02:10:13;7.50;;;6.80;;
20535;SDS011;10426;49.420;8.390;2023-06-10T02:12:40;7.47;;;6.90;;
20535;SDS011;10426;49.420;8.390;2023-06-10T02:15:08;7.67;;;6.97;;
20535;SDS011;10426;49.420;8.390;2023-06-10T02:17:34;7.50;;;6.80;;
20535;SDS011;10426;49.420;8.390;2023-06-10T02:20:01;7.25;;;6.75;;
20535;SDS011;10426;49.420;8.390;2023-06-10T02:22:31;7.50;;;6.90;;
20535;SDS011;10426;49.420;8.390;2023-06-10T02:24:58;7.38;;;6.78;;
20535;SDS011;10426;49.420;8.390;2023-06-10T02:27:24;7.70;;;7.00;;
20535;SDS011;10426;49.420;8.390;2023-06-10T02:29:51;7.57;;;6.97;;
20535;SDS011;10426;49.420;8.390;2023-06-10T02:32:19;7.72;;;7.03;;
20535;SDS011;10426;49.420;8.390;2023-06-10T02:34:46;7.13;;;6.53;;
20535;SDS011;10426;49.420;8.390;2023-06-10T02:37:14;7.75;;;7.05;;
20535;SDS011;10426;49.420;8.390;2023-06-10T02:39:41;7.83;;;7.20;;
20535;SDS011;10426;49.420;8.390;2023-06-10T02:42:07;7.57;;;6.97;;
20535;SDS011;10426;49.420;8.390;2023-06-10T02:44:35;7.60;;;7.00;;
20535;SDS011;10426;49.420;8.390;2023-06-10T02:47:02;7.45;;;6.90;;
20535;SDS011;10426;49.420;8.390;2023-06-10T02:49:30;7.73;;;7.00;;
20535;SDS011;10426;49.420;8.390;2023-06-10T02:51:56;7.68;;;7.05;;
20535;SDS011;10426;49.420;8.390;2023-06-10T02:54:24;7.50;;;6.88;;
20535;SDS011;10426;49.420;8.390;2023-06-10T02:56:51;7.57;;;6.88;;
20535;SDS011;10426;49.420;8.390;2023-06-10T02:59:17;7.32;;;6.68;;
20535;SDS011;10426;49.420;8.390;2023-06-10T03:01:45;7.33;;;6.67;;
20535;SDS011;10426;49.420;8.390;2023-06-10T03:04:12;8.07;;;7.28;;
20535;SDS011;10426;49.420;8.390;2023-06-10T03:06:41;7.55;;;6.88;;
20535;SDS011;10426;49.420;8.390;2023-06-10T03:09:08;7.53;;;6.90;;
20535;SDS011;10426;49.420;8.390;2023-06-10T03:11:34;7.93;;;7.20;;
20535;SDS011;10426;49.420;8.390;2023-06-10T03:14:01;7.73;;;7.03;;
20535;SDS011;10426;49.420;8.390;2023-06-10T03:16:28;7.75;;;7.03;;
20535;SDS011;10426;49.420;8.390;2023-06-10T03:18:55;7.50;;;6.90;;
20535;SDS011;10426;49.420;8.390;2023-06-10T03:21:22;7.45;;;6.75;;
20535;SDS011;10426;49.420;8.390;2023-06-10T03:23:50;7.47;;;6.88;;
20535;SDS011;10426;49.420;8.390;2023-06-10T03:26:16;7.72;;;7.05;;
20535;SDS011;10426;49.420;8.390;2023-06-10T03:28:46;8.00;;;7.30;;
20535;SDS011;10426;49.420;8.390;2023-06-10T03:31:13;7.88;;;7.18;;
20535;SDS011;10426;49.420;8.390;2023-06-10T03:33:42;8.18;;;7.43;;
20535;SDS011;10426;49.420;8.390;2023-06-10T03:36:08;7.32;;;6.72;;
20535;SDS011;10426;49.420;8.390;2023-06-10T03:38:35;8.50;;;7.72;;
20535;SDS011;10426;49.420;8.390;2023-06-10T03:41:03;7.53;;;6.93;;
20535;SDS011;10426;49.420;8.390;2023-06-10T03:43:29;7.93;;;7.13;;
20535;SDS011;10426;49.420;8.390;2023-06-10T03:45:57;7.95;;;7.35;;
20535;SDS011;10426;49.420;8.390;2023-06-10T03:48:23;7.77;;;7.07;;
20535;SDS011;10426;49.420;8.390;2023-06-10T03:50:50;7.63;;;6.93;;
20535;SDS011;10426;49.420;8.390;2023-06-10T03:53:17;8.43;;;7.10;;
20535;SDS011;10426;49.420;8.390;2023-06-10T03:55:44;7.32;;;6.72;;
20535;SDS011;10426;49.420;8.390;2023-06-10T03:58:12;7.82;;;7.13;;
20535;SDS011;10426;49.420;8.390;2023-06-10T04:00:40;8.00;;;7.20;;
20535;SDS011;10426;49.420;8.390;2023-06-10T04:03:07;7.37;;;6.87;;
20535;SDS011;10426;49.420;8.390;2023-06-10T04:05:39;6.95;;;6.43;;
20535;SDS011;10426;49.420;8.390;2023-06-10T04:08:06;7.60;;;6.97;;
20535;SDS011;10426;49.420;8.390;2023-06-10T04:10:32;8.13;;;7.30;;
20535;SDS011;10426;49.420;8.390;2023-06-10T04:12:59;7.38;;;6.75;;
20535;SDS011;10426;49.420;8.390;2023-06-10T04:15:27;7.10;;;6.40;;
20535;SDS011;10426;49.420;8.390;2023-06-10T04:17:54;7.50;;;6.88;;
20535;SDS011;10426;49.420;8.390;2023-06-10T04:20:20;7.38;;;6.78;;
20535;SDS011;10426;49.420;8.390;2023-06-10T04:22:47;7.32;;;6.63;;
20535;SDS011;10426;49.420;8.390;2023-06-10T04:25:14;7.28;;;6.60;;
20535;SDS011;10426;49.420;8.390;2023-06-10T04:27:41;7.15;;;6.57;;
20535;SDS011;10426;49.420;8.390;2023-06-10T04:30:08;7.70;;;6.45;;
20535;SDS011;10426;49.420;8.390;2023-06-10T04:32:36;7.53;;;6.72;;
20535;SDS011;10426;49.420;8.390;2023-06-10T04:35:03;7.18;;;6.68;;
20535;SDS011;10426;49.420;8.390;2023-06-10T04:37:30;7.95;;;7.25;;
20535;SDS011;10426;49.420;8.390;2023-06-10T04:39:57;7.65;;;6.93;;
20535;SDS011;10426;49.420;8.390;2023-06-10T04:42:24;8.00;;;7.20;;
20535;SDS011;10426;49.420;8.390;2023-06-10T04:44:51;7.50;;;6.80;;
20535;SDS011;10426;49.420;8.390;2023-06-10T04:47:17;7.28;;;6.68;;
20535;SDS011;10426;49.420;8.390;2023-06-10T04:49:45;7.55;;;6.85;;
20535;SDS011;10426;49.420;8.390;2023-06-10T04:52:12;8.35;;;7.13;;
20535;SDS011;10426;49.420;8.390;2023-06-10T04:54:39;7.50;;;6.70;;
20535;SDS011;10426;49.420;8.390;2023-06-10T04:57:06;7.38;;;6.68;;
20535;SDS011;10426;49.420;8.390;2023-06-10T04:59:33;7.70;;;6.90;;
20535;SDS011;10426;49.420;8.390;2023-06-10T05:02:02;7.07;;;6.50;;
20535;SDS011;10426;49.420;8.390;2023-06-10T05:04:29;7.43;;;6.82;;
20535;SDS011;10426;49.420;8.390;2023-06-10T05:06:57;7.22;;;6.63;;
20535;SDS011;10426;49.420;8.390;2023-06-10T05:09:24;7.50;;;6.90;;
20535;SDS011;10426;49.420;8.390;2023-06-10T05:11:51;6.80;;;6.30;;
20535;SDS011;10426;49.420;8.390;2023-06-10T05:14:18;7.63;;;6.80;;
20535;SDS011;10426;49.420;8.390;2023-06-10T05:16:46;8.60;;;7.30;;
20535;SDS011;10426;49.420;8.390;2023-06-10T05:19:12;8.30;;;6.90;;
20535;SDS011;10426;49.420;8.390;2023-06-10T05:21:39;8.45;;;6.97;;
20535;SDS011;10426;49.420;8.390;2023-06-10T05:24:07;7.70;;;7.00;;
20535;SDS011;10426;49.420;8.390;2023-06-10T05:26:34;7.77;;;7.07;;
20535;SDS011;10426;49.420;8.390;2023-06-10T05:29:02;7.85;;;7.10;;
20535;SDS011;10426;49.420;8.390;2023-06-10T05:31:29;7.82;;;7.13;;
20535;SDS011;10426;49.420;8.390;2023-06-10T05:33:56;7.60;;;6.90;;
20535;SDS011;10426;49.420;8.390;2023-06-10T05:36:22;7.88;;;7.05;;
20535;SDS011;10426;49.420;8.390;2023-06-10T05:38:50;7.82;;;6.75;;
20535;SDS011;10426;49.420;8.390;2023-06-10T05:41:18;7.70;;;7.00;;
20535;SDS011;10426;49.420;8.390;2023-06-10T05:43:46;7.97;;;7.22;;
20535;SDS011;10426;49.420;8.390;2023-06-10T05:46:12;7.53;;;6.93;;
20535;SDS011;10426;49.420;8.390;2023-06-10T05:48:39;7.43;;;6.82;;
20535;SDS011;10426;49.420;8.390;2023-06-10T05:51:06;7.97;;;7.10;;
20535;SDS011;10426;49.420;8.390;2023-06-10T05:53:32;7.30;;;6.70;;
20535;SDS011;10426;49.420;8.390;2023-06-10T05:55:59;7.70;;;6.97;;
20535;SDS011;10426;49.420;8.390;2023-06-10T05:58:27;7.90;;;7.30;;
20535;SDS011;10426;49.420;8.390;2023-06-10T06:00:53;7.40;;;6.50;;
20535;SDS011;10426;49.420;8.390;2023-06-10T06:03:20;7.85;;;7.25;;
20535;SDS011;10426;49.420;8.390;2023-06-10T06:05:47;8.57;;;7.78;;
20535;SDS011;10426;49.420;8.390;2023-06-10T06:08:13;8.23;;;7.50;;
20535;SDS011;10426;49.420;8.390;2023-06-10T06:10:42;7.70;;;7.00;;
20535;SDS011;10426;49.420;8.390;2023-06-10T06:13:09;6.82;;;6.32;;
20535;SDS011;10426;49.420;8.390;2023-06-10T06:15:37;7.80;;;7.10;;
20535;SDS011;10426;49.420;8.390;2023-06-10T06:18:04;8.52;;;7.38;;
20535;SDS011;10426;49.420;8.390;2023-06-10T06:20:30;8.07;;;6.97;;
20535;SDS011;10426;49.420;8.390;2023-06-10T06:22:57;8.40;;;7.50;;
20535;SDS011;10426;49.420;8.390;2023-06-10T06:25:23;8.30;;;7.60;;
20535;SDS011;10426;49.420;8.390;2023-06-10T06:27:50;7.68;;;6.97;;
20535;SDS011;10426;49.420;8.390;2023-06-10T06:30:16;7.85;;;7.18;;
20535;SDS011;10426;49.420;8.390;2023-06-10T06:32:45;6.90;;;6.30;;
20535;SDS011;10426;49.420;8.390;2023-06-10T06:35:11;7.30;;;6.70;;
20535;SDS011;10426;49.420;8.390;2023-06-10T06:37:38;7.40;;;6.65;;
20535;SDS011;10426;49.420;8.390;2023-06-10T06:40:05;8.07;;;7.28;;
20535;SDS011;10426;49.420;8.390;2023-06-10T06:42:32;7.60;;;6.90;;
20535;SDS011;10426;49.420;8.390;2023-06-10T06:44:58;7.57;;;6.83;;
20535;SDS011;10426;49.420;8.390;2023-06-10T06:47:25;7.15;;;6.55;;
20535;SDS011;10426;49.420;8.390;2023-06-10T06:49:53;7.63;;;6.15;;
20535;SDS011;10426;49.420;8.390;2023-06-10T06:52:19;7.22;;;6.50;;
20535;SDS011;10426;49.420;8.390;2023-06-10T06:54:47;6.40;;;5.87;;
20535;SDS011;10426;49.420;8.390;2023-06-10T06:57:14;5.93;;;5.50;;
20535;SDS011;10426;49.420;8.390;2023-06-10T06:59:41;6.40;;;5.40;;
20535;SDS011;10426;49.420;8.390;2023-06-10T07:02:07;6.55;;;5.95;;
20535;SDS011;10426;49.420;8.390;2023-06-10T07:04:34;6.25;;;5.40;;
20535;SDS011;10426;49.420;8.390;2023-06-10T07:07:04;6.10;;;5.60;;
20535;SDS011;10426;49.420;8.390;2023-06-10T07:09:31;6.10;;;5.60;;
20535;SDS011;10426;49.420;8.390;2023-06-10T07:11:57;6.20;;;5.60;;
20535;SDS011;10426;49.420;8.390;2023-06-10T07:14:24;5.75;;;5.25;;
20535;SDS011;10426;49.420;8.390;2023-06-10T07:16:50;6.20;;;5.70;;
20535;SDS011;10426;49.420;8.390;2023-06-10T07:19:17;6.10;;;5.43;;
20535;SDS011;10426;49.420;8.390;2023-06-10T07:21:44;6.25;;;5.30;;
20535;SDS011;10426;49.420;8.390;2023-06-10T07:24:12;5.60;;;5.10;;
20535;SDS011;10426;49.420;8.390;2023-06-10T07:26:38;5.50;;;4.80;;
20535;SDS011;10426;49.420;8.390;2023-06-10T07:29:05;4.50;;;4.10;;
20535;SDS011;10426;49.420;8.390;2023-06-10T07:31:31;4.20;;;4.00;;
20535;SDS011;10426;49.420;8.390;2023-06-10T07:33:58;4.55;;;4.15;;
20535;SDS011;10426;49.420;8.390;2023-06-10T07:36:25;4.28;;;3.97;;
20535;SDS011;10426;49.420;8.390;2023-06-10T07:38:53;3.83;;;3.63;;
20535;SDS011;10426;49.420;8.390;2023-06-10T07:41:22;4.30;;;3.90;;
20535;SDS011;10426;49.420;8.390;2023-06-10T07:43:50;3.78;;;3.58;;
20535;SDS011;10426;49.420;8.390;2023-06-10T07:46:19;4.30;;;3.90;;
20535;SDS011;10426;49.420;8.390;2023-06-10T07:48:46;4.00;;;3.70;;
20535;SDS011;10426;49.420;8.390;2023-06-10T07:51:13;4.22;;;3.92;;
20535;SDS011;10426;49.420;8.390;2023-06-10T07:53:39;4.55;;;3.97;;
20535;SDS011;10426;49.420;8.390;2023-06-10T07:56:06;4.32;;;3.92;;
20535;SDS011;10426;49.420;8.390;2023-06-10T07:58:34;4.38;;;4.00;;
20535;SDS011;10426;49.420;8.390;2023-06-10T08:01:01;4.25;;;3.95;;
20535;SDS011;10426;49.420;8.390;2023-06-10T08:03:27;4.60;;;4.00;;
20535;SDS011;10426;49.420;8.390;2023-06-10T08:05:54;4.10;;;3.80;;
20535;SDS011;10426;49.420;8.390;2023-06-10T08:08:20;4.68;;;4.28;;
20535;SDS011;10426;49.420;8.390;2023-06-10T08:10:47;4.13;;;3.90;;
20535;SDS011;10426;49.420;8.390;2023-06-10T08:13:14;4.25;;;3.85;;
20535;SDS011;10426;49.420;8.390;2023-06-10T08:15:42;4.20;;;3.90;;
20535;SDS011;10426;49.420;8.390;2023-06-10T08:18:09;4.30;;;3.95;;
20535;SDS011;10426;49.420;8.390;2023-06-10T08:20:36;4.60;;;4.20;;
20535;SDS011;10426;49.420;8.390;2023-06-10T08:23:02;4.30;;;4.00;;
20535;SDS011;10426;49.420;8.390;2023-06-10T08:25:29;4.87;;;4.47;;
20535;SDS011;10426;49.420;8.390;2023-06-10T08:27:56;4.43;;;4.13;;
20535;SDS011;10426;49.420;8.390;2023-06-10T08:30:23;4.40;;;4.00;;
20535;SDS011;10426;49.420;8.390;2023-06-10T08:32:51;4.50;;;4.10;;
20535;SDS011;10426;49.420;8.390;2023-06-10T08:35:18;5.00;;;4.38;;
20535;SDS011;10426;49.420;8.390;2023-06-10T08:37:45;4.32;;;4.03;;
20535;SDS011;10426;49.420;8.390;2023-06-10T08:40:12;4.20;;;3.90;;
20535;SDS011;10426;49.420;8.390;2023-06-10T08:42:39;4.45;;;4.05;;
20535;SDS011;10426;49.420;8.390;2023-06-10T08:45:06;4.70;;;4.30;;
20535;SDS011;10426;49.420;8.390;2023-06-10T08:47:33;4.20;;;4.00;;
20535;SDS011;10426;49.420;8.390;2023-06-10T08:50:03;4.93;;;3.85;;
20535;SDS011;10426;49.420;8.390;2023-06-10T08:52:33;4.50;;;4.10;;
20535;SDS011;10426;49.420;8.390;2023-06-10T08:55:03;4.38;;;4.07;;
20535;SDS011;10426;49.420;8.390;2023-06-10T08:57:30;4.10;;;3.80;;
20535;SDS011;10426;49.420;8.390;2023-06-10T08:59:57;4.55;;;4.18;;
20535;SDS011;10426;49.420;8.390;2023-06-10T09:02:24;4.20;;;3.90;;
20535;SDS011;10426;49.420;8.390;2023-06-10T09:04:50;4.10;;;3.78;;
20535;SDS011;10426;49.420;8.390;2023-06-10T09:07:19;5.13;;;4.20;;
20535;SDS011;10426;49.420;8.390;2023-06-10T09:09:46;4.57;;;4.28;;
20535;SDS011;10426;49.420;8.390;2023-06-10T09:12:13;4.40;;;3.88;;
20535;SDS011;10426;49.420;8.390;2023-06-10T09:14:40;4.75;;;4.25;;
20535;SDS011;10426;49.420;8.390;2023-06-10T09:17:07;4.30;;;3.90;;
20535;SDS011;10426;49.420;8.390;2023-06-10T09:19:33;4.63;;;4.22;;
20535;SDS011;10426;49.420;8.390;2023-06-10T09:22:01;4.00;;;3.70;;
20535;SDS011;10426;49.420;8.390;2023-06-10T09:24:29;3.80;;;3.60;;
20535;SDS011;10426;49.420;8.390;2023-06-10T09:27:02;4.53;;;3.50;;
20535;SDS011;10426;49.420;8.390;2023-06-10T09:29:29;4.35;;;3.80;;
20535;SDS011;10426;49.420;8.390;2023-06-10T09:31:55;3.90;;;3.70;;
20535;SDS011;10426;49.420;8.390;2023-06-10T09:34:24;3.75;;;3.55;;
20535;SDS011;10426;49.420;8.390;2023-06-10T09:36:51;4.10;;;3.80;;
20535;SDS011;10426;49.420;8.390;2023-06-10T09:39:18;4.25;;;3.95;;
20535;SDS011;10426;49.420;8.390;2023-06-10T09:41:46;3.85;;;3.65;;
20535;SDS011;10426;49.420;8.390;2023-06-10T09:44:13;4.35;;;3.95;;
20535;SDS011;10426;49.420;8.390;2023-06-10T09:46:41;4.10;;;3.80;;
20535;SDS011;10426;49.420;8.390;2023-06-10T09:49:07;4.40;;;4.00;;
20535;SDS011;10426;49.420;8.390;2023-06-10T09:51:34;4.43;;;4.13;;
20535;SDS011;10426;49.420;8.390;2023-06-10T09:54:02;4.30;;;4.00;;
20535;SDS011;10426;49.420;8.390;2023-06-10T09:56:35;4.47;;;4.17;;
20535;SDS011;10426;49.420;8.390;2023-06-10T09:59:03;4.40;;;4.10;;
20535;SDS011;10426;49.420;8.390;2023-06-10T10:01:31;4.63;;;4.30;;
20535;SDS011;10426;49.420;8.390;2023-06-10T10:03:59;4.65;;;4.35;;
20535;SDS011;10426;49.420;8.390;2023-06-10T10:06:26;4.22;;;3.90;;
20535;SDS011;10426;49.420;8.390;2023-06-10T10:08:52;4.32;;;4.00;;
20535;SDS011;10426;49.420;8.390;2023-06-10T10:11:19;4.73;;;4.30;;
20535;SDS011;10426;49.420;8.390;2023-06-10T10:13:47;4.70;;;4.30;;
20535;SDS011;10426;49.420;8.390;2023-06-10T10:16:16;4.78;;;4.35;;
20535;SDS011;10426;49.420;8.390;2023-06-10T10:18:44;4.37;;;4.10;;
20535;SDS011;10426;49.420;8.390;2023-06-10T10:21:12;5.10;;;4.70;;
20535;SDS011;10426;49.420;8.390;2023-06-10T10:23:40;5.50;;;4.57;;
20535;SDS011;10426;49.420;8.390;2023-06-10T10:26:10;4.87;;;4.47;;
20535;SDS011;10426;49.420;8.390;2023-06-10T10:28:38;5.18;;;4.50;;
20535;SDS011;10426;49.420;8.390;2023-06-10T10:31:08;4.60;;;4.30;;
20535;SDS011;10426;49.420;8.390;2023-06-10T10:33:40;5.05;;;4.55;;
20535;SDS011;10426;49.420;8.390;2023-06-10T10:36:08;5.82;;;4.53;;
20535;SDS011;10426;49.420;8.390;2023-06-10T10:38:35;4.38;;;4.00;;
20535;SDS011;10426;49.420;8.390;2023-06-10T10:41:02;4.78;;;4.43;;
20535;SDS011;10426;49.420;8.390;2023-06-10T10:43:29;4.53;;;4.18;;
20535;SDS011;10426;49.420;8.390;2023-06-10T10:45:59;4.40;;;4.00;;
20535;SDS011;10426;49.420;8.390;2023-06-10T10:48:26;4.32;;;4.03;;
20535;SDS011;10426;49.420;8.390;2023-06-10T10:51:00;4.93;;;4.32;;
20535;SDS011;10426;49.420;8.390;2023-06-10T10:53:26;4.38;;;4.10;;
20535;SDS011;10426;49.420;8.390;2023-06-10T10:55:59;4.60;;;4.20;;
20535;SDS011;10426;49.420;8.390;2023-06-10T10:58:26;4.43;;;4.03;;
20535;SDS011;10426;49.420;8.390;2023-06-10T11:00:52;4.65;;;4.32;;
20535;SDS011;10426;49.420;8.390;2023-06-10T11:03:19;4.68;;;4.28;;
20535;SDS011;10426;49.420;8.390;2023-06-10T11:05:46;4.50;;;4.10;;
20535;SDS011;10426;49.420;8.390;2023-06-10T11:08:15;3.80;;;3.50;;
20535;SDS011;10426;49.420;8.390;2023-06-10T11:11:17;3.78;;;3.47;;
20535;SDS011;10426;49.420;8.390;2023-06-10T11:13:49;3.80;;;3.42;;
20535;SDS011;10426;49.420;8.390;2023-06-10T11:16:23;3.63;;;3.33;;
20535;SDS011;10426;49.420;8.390;2023-06-10T11:18:53;3.67;;;3.47;;
20535;SDS011;10426;49.420;8.390;2023-06-10T11:21:20;3.37;;;3.17;;
20535;SDS011;10426;49.420;8.390;2023-06-10T11:23:48;3.20;;;3.00;;
20535;SDS011;10426;49.420;8.390;2023-06-10T11:26:17;3.10;;;2.80;;
20535;SDS011;10426;49.420;8.390;2023-06-10T11:29:00;2.60;;;2.50;;
20535;SDS011;10426;49.420;8.390;2023-06-10T11:31:28;3.20;;;2.90;;
20535;SDS011;10426;49.420;8.390;2023-06-10T11:33:55;3.13;;;2.92;;
20535;SDS011;10426;49.420;8.390;2023-06-10T11:36:22;2.70;;;2.50;;
20535;SDS011;10426;49.420;8.390;2023-06-10T11:38:50;3.17;;;2.88;;
20535;SDS011;10426;49.420;8.390;2023-06-10T11:41:19;3.20;;;2.88;;
20535;SDS011;10426;49.420;8.390;2023-06-10T11:43:46;3.22;;;3.03;;
20535;SDS011;10426;49.420;8.390;2023-06-10T11:46:13;2.85;;;2.75;;
20535;SDS011;10426;49.420;8.390;2023-06-10T11:48:47;2.90;;;2.70;;
20535;SDS011;10426;49.420;8.390;2023-06-10T11:51:14;2.70;;;2.50;;
20535;SDS011;10426;49.420;8.390;2023-06-10T11:53:43;2.78;;;2.65;;
20535;SDS011;10426;49.420;8.390;2023-06-10T11:56:11;2.97;;;2.50;;
20535;SDS011;10426;49.420;8.390;2023-06-10T11:58:37;2.53;;;2.42;;
20535;SDS011;10426;49.420;8.390;2023-06-10T12:01:06;3.47;;;2.70;;
20535;SDS011;10426;49.420;8.390;2023-06-10T12:03:35;2.72;;;2.63;;
20535;SDS011;10426;49.420;8.390;2023-06-10T12:06:03;3.08;;;2.83;;
20535;SDS011;10426;49.420;8.390;2023-06-10T12:08:30;2.85;;;2.75;;
20535;SDS011;10426;49.420;8.390;2023-06-10T12:10:56;3.47;;;2.70;;
20535;SDS011;10426;49.420;8.390;2023-06-10T12:13:26;3.10;;;2.80;;
20535;SDS011;10426;49.420;8.390;2023-06-10T12:15:53;2.80;;;2.70;;
20535;SDS011;10426;49.420;8.390;2023-06-10T12:18:20;4.03;;;2.80;;
20535;SDS011;10426;49.420;8.390;2023-06-10T12:20:47;2.70;;;2.58;;
20535;SDS011;10426;49.420;8.390;2023-06-10T12:23:15;3.17;;;3.00;;
20535;SDS011;10426;49.420;8.390;2023-06-10T12:25:49;3.17;;;2.70;;
20535;SDS011;10426;49.420;8.390;2023-06-10T12:28:17;2.60;;;2.50;;
20535;SDS011;10426;49.420;8.390;2023-06-10T12:30:48;3.17;;;2.97;;
20535;SDS011;10426;49.420;8.390;2023-06-10T12:33:17;2.60;;;2.50;;
20535;SDS011;10426;49.420;8.390;2023-06-10T12:35:47;3.10;;;2.90;;
20535;SDS011;10426;49.420;8.390;2023-06-10T12:38:14;2.93;;;2.73;;
20535;SDS011;10426;49.420;8.390;2023-06-10T12:40:41;3.40;;;2.80;;
20535;SDS011;10426;49.420;8.390;2023-06-10T12:43:08;3.08;;;2.88;;
20535;SDS011;10426;49.420;8.390;2023-06-10T12:45:36;3.25;;;3.05;;
20535;SDS011;10426;49.420;8.390;2023-06-10T12:48:06;3.47;;;2.83;;
20535;SDS011;10426;49.420;8.390;2023-06-10T12:50:34;2.65;;;2.55;;
20535;SDS011;10426;49.420;8.390;2023-06-10T12:53:01;3.22;;;3.03;;
20535;SDS011;10426;49.420;8.390;2023-06-10T12:55:27;2.90;;;2.70;;
20535;SDS011;10426;49.420;8.390;2023-06-10T12:57:54;3.10;;;2.90;;
20535;SDS011;10426;49.420;8.390;2023-06-10T13:00:22;2.90;;;2.80;;
20535;SDS011;10426;49.420;8.390;2023-06-10T13:02:51;2.87;;;2.77;;
20535;SDS011;10426;49.420;8.390;2023-06-10T13:05:19;3.10;;;2.80;;
20535;SDS011;10426;49.420;8.390;2023-06-10T13:07:46;2.63;;;2.53;;
20535;SDS011;10426;49.420;8.390;2023-06-10T13:10:14;3.20;;;2.70;;
20535;SDS011;10426;49.420;8.390;2023-06-10T13:12:41;2.90;;;2.70;;
20535;SDS011;10426;49.420;8.390;2023-06-10T13:15:08;2.70;;;2.50;;
20535;SDS011;10426;49.420;8.390;2023-06-10T13:17:35;2.80;;;2.55;;
20535;SDS011;10426;49.420;8.390;2023-06-10T13:20:02;2.90;;;2.70;;
20535;SDS011;10426;49.420;8.390;2023-06-10T13:22:31;2.70;;;2.60;;
20535;SDS011;10426;49.420;8.390;2023-06-10T13:24:58;3.13;;;2.90;;
20535;SDS011;10426;49.420;8.390;2023-06-10T13:27:25;2.88;;;2.70;;
20535;SDS011;10426;49.420;8.390;2023-06-10T13:29:52;2.85;;;2.75;;
20535;SDS011;10426;49.420;8.390;2023-06-10T13:32:19;2.97;;;2.78;;
20535;SDS011;10426;49.420;8.390;2023-06-10T13:34:46;2.75;;;2.55;;
20535;SDS011;10426;49.420;8.390;2023-06-10T13:37:12;2.72;;;2.63;;
20535;SDS011;10426;49.420;8.390;2023-06-10T13:39:40;3.13;;;2.92;;
20535;SDS011;10426;49.420;8.390;2023-06-10T13:42:07;3.30;;;3.00;;
20535;SDS011;10426;49.420;8.390;2023-06-10T13:44:34;2.95;;;2.83;;
20535;SDS011;10426;49.420;8.390;2023-06-10T13:47:01;3.00;;;2.90;;
20535;SDS011;10426;49.420;8.390;2023-06-10T13:49:28;2.95;;;2.78;;
20535;SDS011;10426;49.420;8.390;2023-06-10T13:51:55;3.00;;;2.80;;
20535;SDS011;10426;49.420;8.390;2023-06-10T13:54:21;2.88;;;2.70;;
20535;SDS011;10426;49.420;8.390;2023-06-10T13:56:49;2.90;;;2.80;;
20535;SDS011;10426;49.420;8.390;2023-06-10T13:59:16;2.80;;;2.60;;
20535;SDS011;10426;49.420;8.390;2023-06-10T14:01:42;3.00;;;2.80;;
20535;SDS011;10426;49.420;8.390;2023-06-10T14:04:09;3.00;;;2.80;;
20535;SDS011;10426;49.420;8.390;2023-06-10T14:06:35;3.10;;;2.80;;
20535;SDS011;10426;49.420;8.390;2023-06-10T14:09:02;3.03;;;2.83;;
20535;SDS011;10426;49.420;8.390;2023-06-10T14:11:29;3.08;;;2.88;;
20535;SDS011;10426;49.420;8.390;2023-06-10T14:13:57;2.90;;;2.70;;
20535;SDS011;10426;49.420;8.390;2023-06-10T14:16:26;3.78;;;2.75;;
20535;SDS011;10426;49.420;8.390;2023-06-10T14:18:53;2.97;;;2.80;;
20535;SDS011;10426;49.420;8.390;2023-06-10T14:21:19;3.60;;;2.80;;
20535;SDS011;10426;49.420;8.390;2023-06-10T14:23:46;3.08;;;2.90;;
20535;SDS011;10426;49.420;8.390;2023-06-10T14:26:14;3.70;;;3.00;;
20535;SDS011;10426;49.420;8.390;2023-06-10T14:28:40;2.97;;;2.70;;
20535;SDS011;10426;49.420;8.390;2023-06-10T14:31:08;2.90;;;2.80;;
20535;SDS011;10426;49.420;8.390;2023-06-10T14:33:35;3.10;;;2.90;;
20535;SDS011;10426;49.420;8.390;2023-06-10T14:36:02;3.00;;;2.80;;
20535;SDS011;10426;49.420;8.390;2023-06-10T14:38:28;3.10;;;2.90;;
20535;SDS011;10426;49.420;8.390;2023-06-10T14:40:55;2.90;;;2.70;;
20535;SDS011;10426;49.420;8.390;2023-06-10T14:43:22;2.80;;;2.70;;
20535;SDS011;10426;49.420;8.390;2023-06-10T14:45:48;3.90;;;2.88;;
20535;SDS011;10426;49.420;8.390;2023-06-10T14:48:17;2.70;;;2.50;;
20535;SDS011;10426;49.420;8.390;2023-06-10T14:50:44;2.70;;;2.60;;